Time;durP1;ratioP1;P1;durP2;ratioP2;P2;SDS_P1;SDS_P2;PMS_P1;PMS_P2;Temp;Humidity;BMP_temperature;BMP_pressure;BME280_temperature;BME280_humidity;BME280_pressure;Samples;Min_cycle;Max_cycle;Signal;HPM_P1;HPM_P2
2021/06/21 00:00:45;;;;;;;8.83;3.10;;;15.20;99.90;;;;;;2099108;28;20679;-74
2021/06/21 00:01:46;;;;;;;11.40;3.10;;;15.20;99.90;;;;;;2089804;28;20189;-74
2021/06/21 00:02:47;;;;;;;8.13;2.67;;;15.20;99.90;;;;;;2090514;28;20187;-76
2021/06/21 00:03:48;;;;;;;9.13;3.07;;;15.20;99.90;;;;;;2099352;28;20816;-76
2021/06/21 00:04:53;;;;;;;7.97;2.90;;;15.30;99.90;;;;;;2090401;28;20180;-76
2021/06/21 00:05:54;;;;;;;9.43;2.67;;;15.20;99.90;;;;;;2091167;28;20167;-75
2021/06/21 00:06:56;;;;;;;9.80;3.07;;;15.20;99.90;;;;;;2090523;28;20240;-74
2021/06/21 00:07:57;;;;;;;10.93;2.80;;;15.20;99.90;;;;;;2091139;28;20234;-74
2021/06/21 00:08:58;;;;;;;7.68;2.50;;;15.20;99.90;;;;;;2090420;28;20714;-76
2021/06/21 00:09:59;;;;;;;7.10;2.43;;;15.20;99.90;;;;;;2090905;28;20301;-76
2021/06/21 00:10:59;;;;;;;8.17;2.30;;;15.20;99.90;;;;;;2090627;28;20177;-77
2021/06/21 00:12:00;;;;;;;7.43;2.23;;;15.20;99.90;;;;;;2090248;28;20181;-75
2021/06/21 00:13:01;;;;;;;7.77;2.43;;;15.20;99.90;;;;;;2090077;28;20183;-74
2021/06/21 00:14:03;;;;;;;7.77;2.23;;;15.20;99.90;;;;;;2090203;28;20621;-76
2021/06/21 00:15:06;;;;;;;8.60;2.28;;;15.20;99.90;;;;;;2098163;28;20176;-74
2021/06/21 00:16:07;;;;;;;6.53;2.30;;;15.20;99.90;;;;;;2081477;28;20205;-73
2021/06/21 00:17:08;;;;;;;12.03;2.50;;;15.30;99.90;;;;;;2073430;28;20248;-76
2021/06/21 00:18:12;;;;;;;9.10;2.47;;;15.30;99.90;;;;;;2081709;28;20422;-75
2021/06/21 00:19:13;;;;;;;6.55;2.70;;;15.30;99.90;;;;;;2090292;28;20176;-73
2021/06/21 00:20:15;;;;;;;9.50;3.03;;;15.40;99.90;;;;;;2098610;28;20174;-75
2021/06/21 00:21:16;;;;;;;10.38;2.70;;;15.30;99.90;;;;;;2098428;28;20171;-74
2021/06/21 00:22:19;;;;;;;6.27;2.47;;;15.30;99.90;;;;;;2098395;28;20180;-74
2021/06/21 00:23:20;;;;;;;7.47;2.45;;;15.30;99.90;;;;;;2098429;28;20695;-74
2021/06/21 00:24:21;;;;;;;9.05;3.25;;;15.20;99.90;;;;;;2097894;28;20198;-74
2021/06/21 00:25:23;;;;;;;7.60;3.23;;;15.20;99.90;;;;;;2098073;28;20189;-75
2021/06/21 00:26:24;;;;;;;8.32;2.50;;;15.30;99.90;;;;;;2098593;28;20191;-74
2021/06/21 00:27:25;;;;;;;10.10;2.70;;;15.30;99.90;;;;;;2098437;28;20238;-74
2021/06/21 00:28:26;;;;;;;10.80;3.23;;;15.30;99.90;;;;;;2098844;28;20557;-77
2021/06/21 00:29:27;;;;;;;8.05;3.00;;;15.30;99.90;;;;;;2089767;28;20806;-76
2021/06/21 00:30:28;;;;;;;8.63;3.10;;;15.30;99.90;;;;;;2089890;28;20187;-76
2021/06/21 00:31:28;;;;;;;9.67;3.57;;;15.30;99.90;;;;;;2098716;28;20271;-76
2021/06/21 00:32:29;;;;;;;6.90;2.87;;;15.30;99.90;;;;;;2098387;28;20183;-76
2021/06/21 00:33:30;;;;;;;8.33;2.83;;;15.40;99.90;;;;;;2089794;28;20241;-76
2021/06/21 00:34:31;;;;;;;7.50;2.90;;;15.40;99.90;;;;;;2081522;28;20188;-75
2021/06/21 00:35:32;;;;;;;6.75;3.15;;;15.40;99.90;;;;;;2089864;28;20184;-76
2021/06/21 00:36:33;;;;;;;12.63;3.77;;;15.40;99.90;;;;;;2097936;28;20214;-76
2021/06/21 00:37:34;;;;;;;9.25;3.00;;;15.40;99.90;;;;;;2097955;28;20205;-76
2021/06/21 00:38:35;;;;;;;11.37;3.30;;;15.40;99.90;;;;;;2098502;28;20183;-74
2021/06/21 00:39:36;;;;;;;11.23;3.40;;;15.40;99.90;;;;;;2098619;28;20184;-75
2021/06/21 00:40:38;;;;;;;10.33;3.00;;;15.40;99.90;;;;;;2099081;28;20174;-74
2021/06/21 00:41:39;;;;;;;10.63;2.90;;;15.50;99.90;;;;;;2089888;28;20192;-77
2021/06/21 00:42:43;;;;;;;9.20;3.07;;;15.50;99.90;;;;;;2081743;28;20184;-77
2021/06/21 00:43:44;;;;;;;9.57;2.92;;;15.40;99.90;;;;;;2090229;28;20180;-76
2021/06/21 00:44:46;;;;;;;11.47;3.20;;;15.50;99.90;;;;;;2089970;28;20185;-75
2021/06/21 00:45:48;;;;;;;8.70;3.08;;;15.50;99.90;;;;;;2089703;28;20183;-75
2021/06/21 00:46:49;;;;;;;7.88;3.22;;;15.50;99.90;;;;;;2098599;28;20690;-73
2021/06/21 00:47:52;;;;;;;9.07;3.47;;;15.40;99.90;;;;;;2089432;28;20176;-74
2021/06/21 00:48:52;;;;;;;7.43;3.05;;;15.40;99.90;;;;;;2089654;28;20571;-74
2021/06/21 00:49:53;;;;;;;7.07;3.07;;;15.40;99.90;;;;;;2097604;28;20185;-74
2021/06/21 00:50:54;;;;;;;8.80;2.60;;;15.30;99.90;;;;;;2098510;28;20179;-74
2021/06/21 00:51:56;;;;;;;9.73;3.57;;;15.20;99.90;;;;;;2098184;28;20657;-74
2021/06/21 00:53:00;;;;;;;9.32;2.90;;;15.20;99.90;;;;;;2089304;28;20177;-75
2021/06/21 00:54:02;;;;;;;9.27;2.50;;;15.20;99.90;;;;;;2089996;28;20168;-75
2021/06/21 00:55:05;;;;;;;8.05;2.70;;;15.20;99.90;;;;;;2089232;28;20272;-74
2021/06/21 00:56:06;;;;;;;8.48;3.13;;;15.20;99.90;;;;;;2081254;28;20216;-74
2021/06/21 00:57:07;;;;;;;9.32;3.08;;;15.20;99.90;;;;;;2081155;28;20197;-74
2021/06/21 00:58:08;;;;;;;8.02;2.78;;;15.30;99.90;;;;;;2081120;28;20264;-75
2021/06/21 00:59:09;;;;;;;8.10;2.50;;;15.30;99.90;;;;;;2081112;28;20204;-74
2021/06/21 01:00:13;;;;;;;5.87;2.73;;;15.30;99.90;;;;;;2081097;28;20173;-75
2021/06/21 01:01:14;;;;;;;7.95;3.08;;;15.30;99.90;;;;;;2089914;28;20415;-74
2021/06/21 01:02:17;;;;;;;7.67;3.17;;;15.20;99.90;;;;;;2098062;28;20184;-74
2021/06/21 01:03:18;;;;;;;7.32;3.20;;;15.30;99.90;;;;;;2098199;28;20175;-75
2021/06/21 01:04:19;;;;;;;9.80;3.40;;;15.30;99.90;;;;;;2098103;28;20210;-74
2021/06/21 01:05:24;;;;;;;6.43;2.60;;;15.30;99.90;;;;;;2098286;28;20180;-75
2021/06/21 01:06:26;;;;;;;10.43;2.60;;;15.30;99.90;;;;;;2089377;28;20172;-74
2021/06/21 01:07:27;;;;;;;6.22;2.80;;;15.30;99.90;;;;;;2081180;28;20219;-74
2021/06/21 01:08:27;;;;;;;7.93;2.90;;;15.30;99.90;;;;;;2081111;28;20185;-74
2021/06/21 01:09:28;;;;;;;7.93;2.73;;;15.40;99.90;;;;;;2089296;28;20224;-74
2021/06/21 01:10:30;;;;;;;7.33;2.80;;;15.40;99.90;;;;;;2097347;28;20179;-75
2021/06/21 01:11:58;;;;;;;7.80;3.00;;;15.40;99.90;;;;;;2089284;28;20176;-75
2021/06/21 01:13:27;;;;;;;6.78;2.92;;;15.40;99.90;;;;;;2095826;28;20171;-75
2021/06/21 01:14:34;;;;;;;5.32;2.10;;;15.30;99.90;;;;;;2098190;28;20173;-75
2021/06/21 01:15:45;;;;;;;10.25;2.58;;;15.40;99.90;;;;;;2088886;28;20188;-74
2021/06/21 01:16:56;;;;;;;6.80;2.22;;;15.40;99.90;;;;;;2081950;28;20205;-75
2021/06/21 01:18:02;;;;;;;8.35;2.90;;;15.40;99.90;;;;;;2082549;28;20196;-75
2021/06/21 01:19:14;;;;;;;10.45;3.35;;;15.40;99.90;;;;;;2081484;28;20261;-74
2021/06/21 01:20:35;;;;;;;7.25;2.53;;;15.40;99.90;;;;;;2091178;28;20215;-74
2021/06/21 01:22:09;;;;;;;7.47;2.75;;;15.30;99.90;;;;;;2105988;28;20182;-75
2021/06/21 01:23:21;;;;;;;10.35;2.80;;;15.40;99.90;;;;;;2097526;28;20179;-75
2021/06/21 01:24:59;;;;;;;5.68;2.90;;;15.40;99.90;;;;;;2099314;28;20164;-75
2021/06/21 01:26:10;;;;;;;9.38;2.78;;;15.40;99.90;;;;;;2106356;28;20171;-74
2021/06/21 01:27:40;;;;;;;9.77;2.58;;;15.30;99.90;;;;;;2106405;28;20330;-75
2021/06/21 01:29:04;;;;;;;6.43;2.40;;;15.20;99.90;;;;;;2097434;28;20635;-74
2021/06/21 01:30:50;;;;;;;9.18;2.50;;;15.30;99.90;;;;;;2092209;28;20184;-74
2021/06/21 01:32:08;;;;;;;6.97;2.35;;;15.20;99.90;;;;;;2096342;28;20219;-74
2021/06/21 01:33:10;;;;;;;5.57;2.30;;;15.30;99.90;;;;;;2097468;28;20164;-74
2021/06/21 01:34:14;;;;;;;8.70;2.30;;;15.30;99.90;;;;;;2089369;28;20172;-74
2021/06/21 01:35:39;;;;;;;6.43;2.50;;;15.30;99.90;;;;;;2098113;28;20227;-73
2021/06/21 01:36:44;;;;;;;6.65;2.53;;;15.30;99.90;;;;;;2097257;28;20187;-74
2021/06/21 01:37:48;;;;;;;8.65;2.15;;;15.40;99.90;;;;;;2089818;28;20173;-74
2021/06/21 01:38:59;;;;;;;8.23;2.10;;;15.40;99.90;;;;;;2089407;28;20184;-74
2021/06/21 01:40:03;;;;;;;8.50;2.83;;;15.40;99.90;;;;;;2098504;28;20179;-74
2021/06/21 01:41:08;;;;;;;7.90;2.25;;;15.50;99.90;;;;;;2097252;28;20237;-74
2021/06/21 01:42:12;;;;;;;8.65;2.53;;;15.40;99.90;;;;;;2089275;28;20174;-73
2021/06/21 01:43:18;;;;;;;6.22;2.28;;;15.40;99.90;;;;;;2097092;28;20236;-75
2021/06/21 01:44:22;;;;;;;8.68;2.35;;;15.40;99.90;;;;;;2089689;28;20196;-74
2021/06/21 01:45:23;;;;;;;6.88;2.50;;;15.50;99.90;;;;;;2097721;28;20520;-74
2021/06/21 01:46:31;;;;;;;7.38;2.50;;;15.40;99.90;;;;;;2097216;28;20204;-75
2021/06/21 01:47:34;;;;;;;6.05;2.25;;;15.50;99.90;;;;;;2098223;28;20721;-74
2021/06/21 01:48:45;;;;;;;6.18;2.22;;;15.50;99.90;;;;;;2097117;28;20176;-74
2021/06/21 01:49:48;;;;;;;9.13;2.28;;;15.50;99.90;;;;;;2098531;28;20172;-73
2021/06/21 01:50:55;;;;;;;7.43;2.70;;;15.50;99.90;;;;;;2097141;28;20195;-74
2021/06/21 01:52:00;;;;;;;10.00;2.08;;;15.50;99.90;;;;;;2089979;28;20243;-74
2021/06/21 01:53:12;;;;;;;7.20;2.40;;;15.60;99.90;;;;;;2096921;28;20180;-74
2021/06/21 01:54:15;;;;;;;9.52;2.70;;;15.60;99.90;;;;;;2090539;28;20168;-75
2021/06/21 01:55:21;;;;;;;9.02;2.30;;;15.60;99.90;;;;;;2081182;28;20343;-74
2021/06/21 01:56:26;;;;;;;6.63;2.30;;;15.50;99.90;;;;;;2089369;28;20243;-74
2021/06/21 01:57:33;;;;;;;8.23;2.20;;;15.50;99.90;;;;;;2089661;28;20200;-75
2021/06/21 01:58:37;;;;;;;9.27;2.00;;;15.50;99.90;;;;;;2089541;28;20781;-74
2021/06/21 01:59:38;;;;;;;7.35;1.88;;;15.50;99.90;;;;;;2089479;28;20173;-73
2021/06/21 02:00:40;;;;;;;7.67;2.27;;;15.50;99.90;;;;;;2097033;28;20191;-74
2021/06/21 02:01:44;;;;;;;7.95;2.10;;;15.50;99.90;;;;;;2097181;28;20199;-75
2021/06/21 02:02:47;;;;;;;10.02;2.00;;;15.50;99.90;;;;;;2105103;28;20679;-74
2021/06/21 02:03:50;;;;;;;8.68;2.08;;;15.50;99.90;;;;;;2088771;28;20237;-74
2021/06/21 02:04:54;;;;;;;5.57;2.05;;;15.50;99.90;;;;;;2089443;28;20172;-74
2021/06/21 02:05:57;;;;;;;4.75;1.92;;;15.50;99.90;;;;;;2097115;28;20183;-74
2021/06/21 02:07:01;;;;;;;8.90;2.15;;;15.50;99.90;;;;;;2097171;28;20219;-74
2021/06/21 02:08:04;;;;;;;8.15;2.00;;;15.50;99.90;;;;;;2097111;28;20168;-73
2021/06/21 02:09:09;;;;;;;6.57;1.92;;;15.50;99.90;;;;;;2097247;28;20670;-75
2021/06/21 02:10:12;;;;;;;8.13;2.17;;;15.50;99.90;;;;;;2097163;28;20642;-74
2021/06/21 02:11:14;;;;;;;10.38;2.55;;;15.40;99.90;;;;;;2088963;28;20644;-74
2021/06/21 02:12:21;;;;;;;9.43;2.03;;;15.40;99.90;;;;;;2088947;28;20191;-75
2021/06/21 02:13:23;;;;;;;6.72;2.08;;;15.50;99.90;;;;;;2096908;28;20944;-74
2021/06/21 02:14:31;;;;;;;9.43;2.00;;;15.50;99.90;;;;;;2089001;28;20176;-75
2021/06/21 02:15:32;;;;;;;9.43;2.47;;;15.50;99.90;;;;;;2097941;28;20556;-75
2021/06/21 02:16:34;;;;;;;7.23;1.90;;;15.60;99.90;;;;;;2097013;28;20229;-74
2021/06/21 02:17:37;;;;;;;6.20;2.00;;;15.60;99.90;;;;;;2097049;28;20202;-75
2021/06/21 02:18:38;;;;;;;7.65;1.92;;;15.60;99.90;;;;;;2105315;28;20243;-74
2021/06/21 02:19:40;;;;;;;9.93;1.90;;;15.60;99.90;;;;;;2096815;28;20186;-74
2021/06/21 02:20:41;;;;;;;9.68;2.28;;;15.60;99.90;;;;;;2088880;28;20302;-74
2021/06/21 02:21:42;;;;;;;7.50;2.10;;;15.60;99.90;;;;;;2088832;28;20286;-73
2021/06/21 02:22:46;;;;;;;7.93;2.67;;;15.60;99.90;;;;;;2096901;28;20190;-75
2021/06/21 02:23:51;;;;;;;5.75;2.00;;;15.60;99.90;;;;;;2096954;28;20217;-74
2021/06/21 02:24:54;;;;;;;6.65;2.10;;;15.60;99.90;;;;;;2089400;28;20170;-74
2021/06/21 02:25:57;;;;;;;5.38;1.77;;;15.60;99.90;;;;;;2097386;28;20258;-76
2021/06/21 02:26:59;;;;;;;8.10;2.20;;;15.60;99.90;;;;;;2105975;28;20695;-75
2021/06/21 02:27:59;;;;;;;9.90;2.03;;;15.60;99.90;;;;;;2096867;28;20798;-75
2021/06/21 02:29:02;;;;;;;5.70;2.10;;;15.50;99.90;;;;;;2097172;28;20176;-76
2021/06/21 02:30:11;;;;;;;8.52;2.30;;;15.50;99.90;;;;;;2088640;28;20184;-75
2021/06/21 02:31:12;;;;;;;5.72;1.83;;;15.50;99.90;;;;;;2086897;28;20215;-75
2021/06/21 02:32:12;;;;;;;9.32;2.25;;;15.50;99.90;;;;;;2087976;28;20221;-75
2021/06/21 02:33:15;;;;;;;6.90;1.87;;;15.50;99.90;;;;;;2075475;28;20184;-77
2021/06/21 02:34:17;;;;;;;10.18;2.50;;;15.40;99.90;;;;;;2084111;28;20180;-75
2021/06/21 02:35:18;;;;;;;7.53;1.88;;;15.50;99.90;;;;;;2080537;28;20185;-74
2021/06/21 02:36:18;;;;;;;5.73;1.40;;;15.50;99.90;;;;;;2088660;28;20264;-75
2021/06/21 02:37:19;;;;;;;7.37;1.80;;;15.50;99.90;;;;;;2088565;28;20888;-75
2021/06/21 02:38:21;;;;;;;7.68;2.00;;;15.50;99.90;;;;;;2080460;28;20174;-75
2021/06/21 02:39:22;;;;;;;8.32;1.90;;;15.50;99.90;;;;;;2080565;28;20169;-74
2021/06/21 02:40:24;;;;;;;11.47;2.50;;;15.50;99.90;;;;;;2088609;28;20184;-75
2021/06/21 02:41:25;;;;;;;4.32;1.88;;;15.50;99.90;;;;;;2097478;28;20222;-74
2021/06/21 02:42:25;;;;;;;5.90;2.00;;;15.50;99.90;;;;;;2088343;28;20794;-74
2021/06/21 02:43:26;;;;;;;7.50;2.17;;;15.50;99.90;;;;;;2088689;28;20538;-74
2021/06/21 02:44:27;;;;;;;8.23;2.03;;;15.50;99.90;;;;;;2097581;28;20182;-75
2021/06/21 02:45:29;;;;;;;4.67;1.97;;;15.50;99.90;;;;;;2097678;28;20210;-74
2021/06/21 02:46:30;;;;;;;4.88;1.70;;;15.50;99.90;;;;;;2097332;28;20320;-74
2021/06/21 02:47:31;;;;;;;6.15;1.70;;;15.50;99.90;;;;;;2097601;28;20560;-75
2021/06/21 02:48:32;;;;;;;4.50;2.17;;;15.60;99.90;;;;;;2088603;28;20188;-75
2021/06/21 02:49:34;;;;;;;9.10;1.87;;;15.60;99.90;;;;;;2088678;28;20176;-75
2021/06/21 02:50:42;;;;;;;6.55;1.88;;;15.70;99.90;;;;;;2088802;28;20419;-74
2021/06/21 02:51:58;;;;;;;7.25;2.13;;;15.80;99.90;;;;;;2081461;28;20164;-75
2021/06/21 02:53:16;;;;;;;6.45;2.13;;;15.80;99.90;;;;;;2074497;28;20276;-75
2021/06/21 02:54:38;;;;;;;4.13;1.92;;;15.80;99.90;;;;;;2085438;28;20849;-75
2021/06/21 02:56:15;;;;;;;4.68;1.60;;;15.70;99.90;;;;;;2096965;28;20631;-76
2021/06/21 02:57:29;;;;;;;5.45;1.90;;;15.60;99.90;;;;;;2091984;28;20208;-75
2021/06/21 02:58:38;;;;;;;3.35;1.60;;;15.60;99.90;;;;;;2073763;28;20185;-74
2021/06/21 02:59:41;;;;;;;4.82;1.85;;;15.60;99.90;;;;;;2074504;28;20177;-75
2021/06/21 03:00:42;;;;;;;8.88;2.00;;;15.60;99.90;;;;;;2088679;28;20185;-74
2021/06/21 03:01:54;;;;;;;4.22;1.50;;;15.60;99.90;;;;;;2088566;28;20177;-75
2021/06/21 03:02:57;;;;;;;7.38;2.05;;;15.50;99.90;;;;;;2081432;28;20252;-75
2021/06/21 03:04:00;;;;;;;7.13;2.05;;;15.40;99.90;;;;;;2080764;28;20208;-74
2021/06/21 03:05:02;;;;;;;7.93;2.10;;;15.40;99.90;;;;;;2088704;28;20624;-75
2021/06/21 03:06:05;;;;;;;9.57;2.03;;;15.40;99.90;;;;;;2088840;28;20203;-75
2021/06/21 03:07:11;;;;;;;5.68;1.70;;;15.40;99.90;;;;;;2080401;28;20181;-75
2021/06/21 03:08:13;;;;;;;6.20;1.85;;;15.50;99.90;;;;;;2081226;28;20199;-75
2021/06/21 03:09:19;;;;;;;7.68;2.25;;;15.50;99.90;;;;;;2080444;28;20174;-74
2021/06/21 03:10:22;;;;;;;6.80;2.13;;;15.50;99.90;;;;;;2081071;28;20232;-75
2021/06/21 03:11:24;;;;;;;5.00;1.45;;;15.40;99.90;;;;;;2080542;28;20181;-75
2021/06/21 03:12:28;;;;;;;4.97;1.80;;;15.50;99.90;;;;;;2080415;28;20666;-75
2021/06/21 03:13:29;;;;;;;5.88;1.85;;;15.40;99.90;;;;;;2083007;28;20177;-75
2021/06/21 03:14:30;;;;;;;6.80;1.73;;;15.40;99.90;;;;;;2080518;28;20267;-75
2021/06/21 03:15:33;;;;;;;3.97;1.98;;;15.40;99.90;;;;;;2080367;28;20248;-76
2021/06/21 03:16:35;;;;;;;7.32;1.80;;;15.40;99.90;;;;;;2080378;28;20200;-75
2021/06/21 03:17:38;;;;;;;4.40;1.58;;;15.40;99.90;;;;;;2080522;28;20201;-75
2021/06/21 03:18:40;;;;;;;4.60;2.20;;;15.40;99.90;;;;;;2088676;28;20187;-76
2021/06/21 03:19:43;;;;;;;6.00;2.13;;;15.40;99.90;;;;;;2080386;28;20177;-75
2021/06/21 03:20:44;;;;;;;6.63;1.90;;;15.40;99.90;;;;;;2080702;28;20529;-76
2021/06/21 03:21:47;;;;;;;6.05;1.77;;;15.40;99.90;;;;;;2088690;28;20206;-75
2021/06/21 03:22:49;;;;;;;5.65;1.77;;;15.50;99.90;;;;;;2080731;28;20184;-75
2021/06/21 03:23:53;;;;;;;5.30;1.85;;;15.50;99.90;;;;;;2089102;28;20637;-76
2021/06/21 03:24:55;;;;;;;4.88;2.40;;;15.50;99.90;;;;;;2089230;28;20191;-75
2021/06/21 03:26:00;;;;;;;9.60;2.20;;;15.50;99.90;;;;;;2088630;28;20185;-76
2021/06/21 03:27:00;;;;;;;7.18;2.00;;;15.50;99.90;;;;;;2088470;28;20255;-75
2021/06/21 03:28:11;;;;;;;6.10;1.80;;;15.50;99.90;;;;;;2079980;28;20586;-76
2021/06/21 03:29:18;;;;;;;4.80;2.17;;;15.50;99.90;;;;;;2073269;28;20258;-75
2021/06/21 03:30:20;;;;;;;7.75;2.10;;;15.50;99.90;;;;;;2080890;28;20659;-75
2021/06/21 03:31:22;;;;;;;3.88;1.70;;;15.50;99.90;;;;;;2080052;28;20608;-75
2021/06/21 03:32:32;;;;;;;7.90;2.38;;;15.50;99.90;;;;;;2071875;28;20185;-75
2021/06/21 03:33:34;;;;;;;5.53;1.92;;;15.50;99.90;;;;;;2081200;28;20209;-74
2021/06/21 03:34:35;;;;;;;5.63;1.90;;;15.50;99.90;;;;;;2088153;28;20219;-75
2021/06/21 03:35:36;;;;;;;4.75;1.77;;;15.50;99.90;;;;;;2089187;28;20188;-75
2021/06/21 03:36:37;;;;;;;6.55;2.00;;;15.50;99.90;;;;;;2088899;28;20205;-75
2021/06/21 03:37:39;;;;;;;6.15;1.92;;;15.50;99.90;;;;;;2088370;28;20702;-79
2021/06/21 03:38:40;;;;;;;7.43;2.10;;;15.40;99.90;;;;;;2079963;28;20176;-75
2021/06/21 03:39:40;;;;;;;4.67;1.67;;;15.30;99.90;;;;;;2081186;28;20564;-74
2021/06/21 03:40:43;;;;;;;9.03;2.37;;;15.20;99.90;;;;;;2090362;28;20223;-75
2021/06/21 03:41:45;;;;;;;5.30;1.95;;;15.10;99.90;;;;;;2090008;28;20176;-75
2021/06/21 03:42:46;;;;;;;8.02;1.95;;;15.10;99.90;;;;;;2081193;28;20169;-75
2021/06/21 03:43:46;;;;;;;8.95;2.30;;;15.10;99.90;;;;;;2081660;28;20182;-75
2021/06/21 03:44:48;;;;;;;5.47;2.13;;;15.10;99.90;;;;;;2090205;28;20298;-75
2021/06/21 03:45:56;;;;;;;6.53;1.98;;;15.10;99.90;;;;;;2081545;28;20176;-75
2021/06/21 03:46:57;;;;;;;7.03;2.15;;;15.10;99.90;;;;;;2081294;28;20203;-75
2021/06/21 03:47:57;;;;;;;4.67;1.83;;;15.10;99.90;;;;;;2081477;28;20173;-75
2021/06/21 03:48:58;;;;;;;4.67;1.87;;;15.20;99.90;;;;;;2089602;28;20208;-74
2021/06/21 03:49:59;;;;;;;7.83;2.10;;;15.20;99.90;;;;;;2090256;28;20662;-75
2021/06/21 03:51:00;;;;;;;3.03;1.63;;;15.30;99.90;;;;;;2090107;28;20592;-75
2021/06/21 03:52:01;;;;;;;6.03;2.03;;;15.30;99.90;;;;;;2090363;28;20538;-75
2021/06/21 03:53:02;;;;;;;9.13;2.20;;;15.40;99.90;;;;;;2089334;28;20201;-75
2021/06/21 03:54:03;;;;;;;6.15;1.90;;;15.40;99.90;;;;;;2089669;28;20175;-75
2021/06/21 03:55:08;;;;;;;6.17;2.00;;;15.40;99.90;;;;;;2089516;28;20686;-75
2021/06/21 03:56:09;;;;;;;6.95;2.28;;;15.50;99.90;;;;;;2089374;28;20172;-75
2021/06/21 03:57:10;;;;;;;4.87;1.63;;;15.50;99.90;;;;;;2089483;28;20692;-74
2021/06/21 03:58:11;;;;;;;6.65;2.00;;;15.50;99.90;;;;;;2089526;28;20173;-75
2021/06/21 03:59:11;;;;;;;8.40;2.00;;;15.40;99.90;;;;;;2090057;28;20252;-75
2021/06/21 04:00:20;;;;;;;5.93;2.00;;;15.40;99.90;;;;;;2090138;28;20735;-75
2021/06/21 04:01:21;;;;;;;5.88;1.90;;;15.30;99.90;;;;;;2090000;28;20172;-76
2021/06/21 04:02:21;;;;;;;7.23;2.13;;;15.40;99.90;;;;;;2089275;28;20210;-75
2021/06/21 04:03:23;;;;;;;5.90;1.80;;;15.40;99.90;;;;;;2089405;28;20172;-76
2021/06/21 04:04:25;;;;;;;4.80;2.08;;;15.50;99.90;;;;;;2081269;28;20303;-75
2021/06/21 04:05:27;;;;;;;5.05;1.70;;;15.60;99.90;;;;;;2073328;28;20253;-75
2021/06/21 04:06:27;;;;;;;6.00;1.98;;;15.60;99.90;;;;;;2081357;28;20208;-75
2021/06/21 04:07:28;;;;;;;5.10;1.70;;;15.70;99.90;;;;;;2089959;28;20630;-75
2021/06/21 04:08:29;;;;;;;5.07;1.83;;;15.70;99.90;;;;;;2090081;28;20201;-75
2021/06/21 04:09:29;;;;;;;4.63;2.07;;;15.70;99.90;;;;;;2089336;28;20263;-75
2021/06/21 04:10:30;;;;;;;5.93;1.57;;;15.70;99.90;;;;;;2089492;28;20177;-75
2021/06/21 04:11:31;;;;;;;4.73;1.67;;;15.60;99.90;;;;;;2081155;28;20177;-75
2021/06/21 04:12:32;;;;;;;6.67;1.93;;;15.60;99.90;;;;;;2089120;28;20184;-75
2021/06/21 04:13:34;;;;;;;4.75;1.50;;;15.60;99.90;;;;;;2089226;28;20177;-75
2021/06/21 04:14:34;;;;;;;4.05;1.70;;;15.60;99.90;;;;;;2082001;28;20212;-75
2021/06/21 04:15:36;;;;;;;5.30;2.13;;;15.60;99.90;;;;;;2091226;28;20183;-76
2021/06/21 04:16:37;;;;;;;5.13;2.05;;;15.50;99.90;;;;;;2091434;28;20261;-75
2021/06/21 04:17:38;;;;;;;6.47;2.10;;;15.50;99.90;;;;;;2090640;28;20862;-75
2021/06/21 04:18:39;;;;;;;6.22;2.10;;;15.50;99.90;;;;;;2090818;28;20595;-75
2021/06/21 04:19:40;;;;;;;6.77;2.17;;;15.40;99.90;;;;;;2090872;28;20180;-75
2021/06/21 04:20:42;;;;;;;6.53;2.00;;;15.50;99.90;;;;;;2091367;28;20631;-74
2021/06/21 04:21:43;;;;;;;6.72;1.98;;;15.50;99.90;;;;;;2091419;28;20172;-75
2021/06/21 04:22:44;;;;;;;6.63;2.23;;;15.50;99.90;;;;;;2091258;28;20229;-75
2021/06/21 04:23:45;;;;;;;6.75;2.17;;;15.40;99.90;;;;;;2090632;28;20183;-75
2021/06/21 04:24:46;;;;;;;3.47;1.77;;;15.40;99.90;;;;;;2090911;28;20179;-75
2021/06/21 04:25:46;;;;;;;5.17;2.00;;;15.40;99.90;;;;;;2090764;28;20180;-75
2021/06/21 04:26:47;;;;;;;5.57;2.03;;;15.40;99.90;;;;;;2090826;28;20275;-75
2021/06/21 04:27:48;;;;;;;9.77;2.47;;;15.40;99.90;;;;;;2091009;28;20192;-75
2021/06/21 04:28:50;;;;;;;4.43;2.25;;;15.40;99.90;;;;;;2082811;28;20185;-75
2021/06/21 04:29:51;;;;;;;8.23;2.50;;;15.40;99.90;;;;;;2074691;28;20178;-76
2021/06/21 04:30:51;;;;;;;7.77;2.10;;;15.50;99.90;;;;;;2074510;28;20288;-75
2021/06/21 04:31:52;;;;;;;9.20;2.77;;;15.50;99.90;;;;;;2079122;28;20712;-75
2021/06/21 04:32:54;;;;;;;5.23;2.80;;;15.50;99.90;;;;;;2082755;28;20196;-75
2021/06/21 04:33:55;;;;;;;5.88;2.60;;;15.50;99.90;;;;;;2086065;28;20172;-75
2021/06/21 04:34:55;;;;;;;6.27;2.40;;;15.40;99.90;;;;;;2099771;28;20539;-75
2021/06/21 04:35:56;;;;;;;8.10;2.40;;;15.40;99.90;;;;;;2099792;28;20207;-74
2021/06/21 04:36:57;;;;;;;8.07;2.20;;;15.40;99.90;;;;;;2099834;28;20708;-76
2021/06/21 04:37:58;;;;;;;6.20;2.30;;;15.30;99.90;;;;;;2099882;28;20186;-75
2021/06/21 04:38:58;;;;;;;6.20;2.00;;;15.20;99.90;;;;;;2091000;28;20454;-75
2021/06/21 04:40:01;;;;;;;5.50;2.10;;;15.20;99.90;;;;;;2091068;28;20195;-75
2021/06/21 04:41:02;;;;;;;6.53;2.40;;;15.20;99.90;;;;;;2091119;28;20199;-75
2021/06/21 04:42:04;;;;;;;4.55;2.08;;;15.10;99.90;;;;;;2091457;28;20177;-75
2021/06/21 04:43:05;;;;;;;4.90;1.95;;;15.10;99.90;;;;;;2098962;28;20183;-75
2021/06/21 04:44:06;;;;;;;4.75;2.15;;;15.10;99.90;;;;;;2099982;28;20174;-75
2021/06/21 04:45:08;;;;;;;6.97;2.60;;;15.20;99.90;;;;;;2099939;28;20202;-75
2021/06/21 04:46:08;;;;;;;6.78;2.22;;;15.20;99.90;;;;;;2099932;28;20191;-75
2021/06/21 04:47:09;;;;;;;8.63;2.23;;;15.10;99.90;;;;;;2098796;28;20565;-75
2021/06/21 04:48:10;;;;;;;5.10;2.17;;;15.20;99.90;;;;;;2098106;28;20188;-75
2021/06/21 04:49:13;;;;;;;5.67;1.93;;;15.20;99.90;;;;;;2089024;28;20689;-75
2021/06/21 04:50:17;;;;;;;6.50;2.60;;;15.10;99.90;;;;;;2089362;28;20180;-75
2021/06/21 04:51:20;;;;;;;7.30;2.53;;;15.10;99.90;;;;;;2097227;28;20176;-75
2021/06/21 04:52:23;;;;;;;7.03;2.42;;;15.00;99.90;;;;;;2097275;28;20225;-75
2021/06/21 04:53:24;;;;;;;4.63;2.40;;;15.00;99.90;;;;;;2089037;28;20180;-75
2021/06/21 04:54:25;;;;;;;7.73;2.40;;;15.00;99.90;;;;;;2089334;28;20589;-75
2021/06/21 04:55:26;;;;;;;7.53;2.83;;;15.00;99.90;;;;;;2089015;28;20189;-75
2021/06/21 04:56:27;;;;;;;7.43;2.70;;;15.00;99.90;;;;;;2089120;28;20204;-75
2021/06/21 04:57:29;;;;;;;10.40;2.70;;;14.90;99.90;;;;;;2088838;28;20807;-75
2021/06/21 04:58:34;;;;;;;6.97;2.40;;;14.90;99.90;;;;;;2089244;28;20255;-76
2021/06/21 04:59:35;;;;;;;7.50;2.47;;;14.90;99.90;;;;;;2089085;28;20269;-76
2021/06/21 05:00:36;;;;;;;6.97;2.00;;;14.90;99.90;;;;;;2089765;28;20184;-76
2021/06/21 05:01:36;;;;;;;8.27;2.70;;;15.00;99.90;;;;;;2088973;28;20176;-75
2021/06/21 05:02:38;;;;;;;5.80;2.57;;;15.00;99.90;;;;;;2088936;28;20211;-75
2021/06/21 05:03:38;;;;;;;4.30;2.33;;;15.00;99.90;;;;;;2097910;28;20189;-75
2021/06/21 05:04:39;;;;;;;8.60;2.33;;;15.10;99.90;;;;;;2098000;28;20179;-75
2021/06/21 05:05:40;;;;;;;5.90;2.30;;;15.10;99.90;;;;;;2088990;28;20185;-76
2021/06/21 05:06:40;;;;;;;5.10;2.30;;;15.20;99.90;;;;;;2080810;28;20555;-76
2021/06/21 05:07:42;;;;;;;5.77;2.50;;;15.20;99.90;;;;;;2088846;28;20205;-75
2021/06/21 05:08:42;;;;;;;4.15;2.38;;;15.20;99.90;;;;;;2097317;28;20210;-75
2021/06/21 05:09:43;;;;;;;6.37;2.20;;;15.30;99.90;;;;;;2088972;28;20263;-75
2021/06/21 05:10:44;;;;;;;4.63;2.35;;;15.30;99.90;;;;;;2089120;28;20522;-75
2021/06/21 05:11:45;;;;;;;4.53;2.30;;;15.40;99.90;;;;;;2097271;28;20311;-76
2021/06/21 05:12:46;;;;;;;4.77;2.23;;;15.40;99.90;;;;;;2089237;28;20782;-75
2021/06/21 05:13:47;;;;;;;7.80;2.30;;;15.50;99.90;;;;;;2090367;28;20183;-75
2021/06/21 05:14:48;;;;;;;8.80;2.23;;;15.50;99.90;;;;;;2080933;28;20271;-75
2021/06/21 05:15:48;;;;;;;6.17;2.30;;;15.50;99.90;;;;;;2072661;28;20189;-75
2021/06/21 05:16:49;;;;;;;7.93;2.40;;;15.50;99.90;;;;;;2081581;28;20247;-75
2021/06/21 05:17:50;;;;;;;5.33;2.10;;;15.60;99.90;;;;;;2080689;28;20185;-74
2021/06/21 05:18:51;;;;;;;5.27;2.13;;;15.70;99.90;;;;;;2080778;28;20207;-74
2021/06/21 05:19:52;;;;;;;5.23;2.27;;;15.70;99.90;;;;;;2072550;28;20182;-74
2021/06/21 05:20:52;;;;;;;5.47;1.90;;;15.80;99.90;;;;;;2072607;28;20178;-74
2021/06/21 05:21:53;;;;;;;4.93;1.70;;;15.70;99.90;;;;;;2072635;28;20653;-74
2021/06/21 05:22:54;;;;;;;6.80;2.30;;;15.70;99.90;;;;;;2072315;28;20268;-74
2021/06/21 05:23:54;;;;;;;3.40;1.90;;;15.70;99.90;;;;;;2072636;28;20641;-73
2021/06/21 05:24:57;;;;;;;7.20;1.87;;;15.80;99.90;;;;;;2072551;28;20177;-74
2021/06/21 05:25:58;;;;;;;4.28;2.03;;;15.90;99.90;;;;;;2081051;28;20176;-74
2021/06/21 05:26:59;;;;;;;5.77;1.77;;;16.00;99.90;;;;;;2089367;28;20180;-74
2021/06/21 05:28:01;;;;;;;7.40;2.13;;;16.00;99.90;;;;;;2080886;28;20307;-74
2021/06/21 05:29:02;;;;;;;5.43;1.90;;;16.10;99.90;;;;;;2072771;28;20939;-74
2021/06/21 05:30:04;;;;;;;5.78;1.80;;;16.20;99.90;;;;;;2080766;28;20173;-74